sensor_id;sensor_type;location;lat;lon;timestamp;temperature;humidity
31207;DHT22;17834;52.992;8.856;2023-12-28T00:02:12;8.60;99.90
31207;DHT22;17834;52.992;8.856;2023-12-28T00:04:39;8.60;99.90
31207;DHT22;17834;52.992;8.856;2023-12-28T00:07:04;8.50;99.90
31207;DHT22;17834;52.992;8.856;2023-12-28T00:09:30;8.50;99.90
31207;DHT22;17834;52.992;8.856;2023-12-28T00:11:55;8.40;99.90
31207;DHT22;17834;52.992;8.856;2023-12-28T00:14:21;8.40;99.90
31207;DHT22;17834;52.992;8.856;2023-12-28T00:16:46;8.40;99.90
31207;DHT22;17834;52.992;8.856;2023-12-28T00:19:11;8.40;99.90
31207;DHT22;17834;52.992;8.856;2023-12-28T00:21:37;8.30;99.90
31207;DHT22;17834;52.992;8.856;2023-12-28T00:24:03;8.30;99.90
31207;DHT22;17834;52.992;8.856;2023-12-28T00:26:28;8.30;99.90
31207;DHT22;17834;52.992;8.856;2023-12-28T00:28:54;8.30;99.90
31207;DHT22;17834;52.992;8.856;2023-12-28T00:31:19;8.30;99.90
31207;DHT22;17834;52.992;8.856;2023-12-28T00:33:45;8.30;99.90
31207;DHT22;17834;52.992;8.856;2023-12-28T00:36:10;8.30;99.90
31207;DHT22;17834;52.992;8.856;2023-12-28T00:38:36;8.30;99.90
31207;DHT22;17834;52.992;8.856;2023-12-28T00:41:01;8.30;99.90
31207;DHT22;17834;52.992;8.856;2023-12-28T00:43:27;8.40;99.90
31207;DHT22;17834;52.992;8.856;2023-12-28T00:45:52;8.40;99.90
31207;DHT22;17834;52.992;8.856;2023-12-28T00:48:18;8.40;99.90
31207;DHT22;17834;52.992;8.856;2023-12-28T00:50:43;8.40;99.90
31207;DHT22;17834;52.992;8.856;2023-12-28T00:53:09;8.40;99.90
31207;DHT22;17834;52.992;8.856;2023-12-28T00:55:34;8.40;99.90
31207;DHT22;17834;52.992;8.856;2023-12-28T00:57:59;8.30;99.90
31207;DHT22;17834;52.992;8.856;2023-12-28T01:00:25;8.30;99.90
31207;DHT22;17834;52.992;8.856;2023-12-28T01:02:51;8.30;99.90
31207;DHT22;17834;52.992;8.856;2023-12-28T01:05:16;8.20;99.90
31207;DHT22;17834;52.992;8.856;2023-12-28T01:07:42;8.20;99.90
31207;DHT22;17834;52.992;8.856;2023-12-28T01:10:08;8.10;99.90
31207;DHT22;17834;52.992;8.856;2023-12-28T01:12:33;8.10;99.90
31207;DHT22;17834;52.992;8.856;2023-12-28T01:14:59;8.10;99.90
31207;DHT22;17834;52.992;8.856;2023-12-28T01:17:24;8.10;99.90
31207;DHT22;17834;52.992;8.856;2023-12-28T01:19:50;8.10;99.90
31207;DHT22;17834;52.992;8.856;2023-12-28T01:22:15;8.10;99.90
31207;DHT22;17834;52.992;8.856;2023-12-28T01:24:41;8.10;99.90
31207;DHT22;17834;52.992;8.856;2023-12-28T01:27:06;8.10;99.90
31207;DHT22;17834;52.992;8.856;2023-12-28T01:29:32;8.00;99.90
31207;DHT22;17834;52.992;8.856;2023-12-28T01:31:59;8.00;99.90
31207;DHT22;17834;52.992;8.856;2023-12-28T01:34:24;8.00;99.90
31207;DHT22;17834;52.992;8.856;2023-12-28T01:36:50;8.00;99.90
31207;DHT22;17834;52.992;8.856;2023-12-28T01:39:15;8.00;99.90
31207;DHT22;17834;52.992;8.856;2023-12-28T01:41:44;8.00;99.90
31207;DHT22;17834;52.992;8.856;2023-12-28T01:44:10;8.10;99.90
31207;DHT22;17834;52.992;8.856;2023-12-28T01:46:36;8.20;99.90
31207;DHT22;17834;52.992;8.856;2023-12-28T01:49:03;8.20;99.90
31207;DHT22;17834;52.992;8.856;2023-12-28T01:51:29;8.30;99.90
31207;DHT22;17834;52.992;8.856;2023-12-28T01:53:54;8.40;99.90
31207;DHT22;17834;52.992;8.856;2023-12-28T01:56:21;8.40;99.90
31207;DHT22;17834;52.992;8.856;2023-12-28T01:58:49;8.50;99.90
31207;DHT22;17834;52.992;8.856;2023-12-28T02:01:15;8.50;99.90
31207;DHT22;17834;52.992;8.856;2023-12-28T02:03:41;8.50;99.90
31207;DHT22;17834;52.992;8.856;2023-12-28T02:06:07;8.50;99.90
31207;DHT22;17834;52.992;8.856;2023-12-28T02:08:32;8.50;99.90
31207;DHT22;17834;52.992;8.856;2023-12-28T02:10:58;8.40;99.90
31207;DHT22;17834;52.992;8.856;2023-12-28T02:13:25;8.30;99.90
31207;DHT22;17834;52.992;8.856;2023-12-28T02:15:58;8.30;99.90
31207;DHT22;17834;52.992;8.856;2023-12-28T02:18:30;8.20;99.90
31207;DHT22;17834;52.992;8.856;2023-12-28T02:20:58;8.20;99.90
31207;DHT22;17834;52.992;8.856;2023-12-28T02:23:24;8.10;99.90
31207;DHT22;17834;52.992;8.856;2023-12-28T02:25:49;8.10;99.90
31207;DHT22;17834;52.992;8.856;2023-12-28T02:28:15;8.10;99.90
31207;DHT22;17834;52.992;8.856;2023-12-28T02:30:40;8.20;99.90
31207;DHT22;17834;52.992;8.856;2023-12-28T02:36:02;8.20;99.90
31207;DHT22;17834;52.992;8.856;2023-12-28T02:38:30;8.30;99.90
31207;DHT22;17834;52.992;8.856;2023-12-28T02:40:56;8.30;99.90
31207;DHT22;17834;52.992;8.856;2023-12-28T02:43:22;8.20;99.90
31207;DHT22;17834;52.992;8.856;2023-12-28T02:45:48;8.20;99.90
31207;DHT22;17834;52.992;8.856;2023-12-28T02:48:14;8.20;99.90
31207;DHT22;17834;52.992;8.856;2023-12-28T02:50:39;8.20;99.90
31207;DHT22;17834;52.992;8.856;2023-12-28T02:53:05;8.20;99.90
31207;DHT22;17834;52.992;8.856;2023-12-28T02:55:30;8.10;99.90
31207;DHT22;17834;52.992;8.856;2023-12-28T02:57:57;8.10;99.90
31207;DHT22;17834;52.992;8.856;2023-12-28T03:00:26;8.00;99.90
31207;DHT22;17834;52.992;8.856;2023-12-28T03:02:51;8.00;99.90
31207;DHT22;17834;52.992;8.856;2023-12-28T03:05:17;8.00;99.90
31207;DHT22;17834;52.992;8.856;2023-12-28T03:07:43;8.00;99.90
31207;DHT22;17834;52.992;8.856;2023-12-28T03:10:09;8.00;99.90
31207;DHT22;17834;52.992;8.856;2023-12-28T03:12:36;8.00;99.90
31207;DHT22;17834;52.992;8.856;2023-12-28T03:15:01;8.00;99.90
31207;DHT22;17834;52.992;8.856;2023-12-28T03:17:27;8.00;99.90
31207;DHT22;17834;52.992;8.856;2023-12-28T03:19:54;8.00;99.90
31207;DHT22;17834;52.992;8.856;2023-12-28T03:22:19;8.10;99.90
31207;DHT22;17834;52.992;8.856;2023-12-28T03:24:46;8.10;99.90
31207;DHT22;17834;52.992;8.856;2023-12-28T03:27:12;8.10;99.90
31207;DHT22;17834;52.992;8.856;2023-12-28T03:29:37;8.10;99.90
31207;DHT22;17834;52.992;8.856;2023-12-28T03:32:03;8.10;99.90
31207;DHT22;17834;52.992;8.856;2023-12-28T03:34:29;8.10;99.90
31207;DHT22;17834;52.992;8.856;2023-12-28T03:36:56;8.10;99.90
31207;DHT22;17834;52.992;8.856;2023-12-28T03:39:22;8.10;99.90
31207;DHT22;17834;52.992;8.856;2023-12-28T03:41:49;8.10;99.90
31207;DHT22;17834;52.992;8.856;2023-12-28T03:44:14;8.00;99.90
31207;DHT22;17834;52.992;8.856;2023-12-28T03:46:40;8.00;99.90
31207;DHT22;17834;52.992;8.856;2023-12-28T03:49:05;8.00;99.90
31207;DHT22;17834;52.992;8.856;2023-12-28T03:51:31;8.00;99.90
31207;DHT22;17834;52.992;8.856;2023-12-28T03:53:57;8.00;99.90
31207;DHT22;17834;52.992;8.856;2023-12-28T03:56:24;8.00;99.90
31207;DHT22;17834;52.992;8.856;2023-12-28T03:58:50;8.00;99.90
31207;DHT22;17834;52.992;8.856;2023-12-28T04:01:19;8.00;99.90
31207;DHT22;17834;52.992;8.856;2023-12-28T04:03:45;8.00;99.90
31207;DHT22;17834;52.992;8.856;2023-12-28T04:06:11;8.00;99.90
31207;DHT22;17834;52.992;8.856;2023-12-28T04:08:38;8.00;99.90
31207;DHT22;17834;52.992;8.856;2023-12-28T04:11:04;8.00;99.90
31207;DHT22;17834;52.992;8.856;2023-12-28T04:13:29;7.90;99.90
31207;DHT22;17834;52.992;8.856;2023-12-28T04:15:54;7.90;99.90
31207;DHT22;17834;52.992;8.856;2023-12-28T04:18:20;7.90;99.90
31207;DHT22;17834;52.992;8.856;2023-12-28T04:20:45;7.90;99.90
31207;DHT22;17834;52.992;8.856;2023-12-28T04:23:11;7.80;99.90
31207;DHT22;17834;52.992;8.856;2023-12-28T04:25:37;7.80;99.90
31207;DHT22;17834;52.992;8.856;2023-12-28T04:28:02;7.80;99.90
31207;DHT22;17834;52.992;8.856;2023-12-28T04:30:28;7.80;99.90
31207;DHT22;17834;52.992;8.856;2023-12-28T04:32:53;7.80;99.90
31207;DHT22;17834;52.992;8.856;2023-12-28T04:35:19;7.80;99.90
31207;DHT22;17834;52.992;8.856;2023-12-28T04:37:44;7.90;99.90
31207;DHT22;17834;52.992;8.856;2023-12-28T04:40:10;7.80;99.90
31207;DHT22;17834;52.992;8.856;2023-12-28T04:42:35;7.90;99.90
31207;DHT22;17834;52.992;8.856;2023-12-28T04:45:01;7.90;99.90
31207;DHT22;17834;52.992;8.856;2023-12-28T04:47:27;8.00;99.90
31207;DHT22;17834;52.992;8.856;2023-12-28T04:49:52;7.90;99.90
31207;DHT22;17834;52.992;8.856;2023-12-28T04:52:18;8.00;99.90
31207;DHT22;17834;52.992;8.856;2023-12-28T04:54:43;7.90;99.90
31207;DHT22;17834;52.992;8.856;2023-12-28T04:57:09;7.80;99.90
31207;DHT22;17834;52.992;8.856;2023-12-28T04:59:41;7.80;99.90
31207;DHT22;17834;52.992;8.856;2023-12-28T05:02:06;7.70;99.90
31207;DHT22;17834;52.992;8.856;2023-12-28T05:04:32;7.70;99.90
31207;DHT22;17834;52.992;8.856;2023-12-28T05:06:58;7.70;99.90
31207;DHT22;17834;52.992;8.856;2023-12-28T05:09:24;7.70;99.90
31207;DHT22;17834;52.992;8.856;2023-12-28T05:11:49;7.60;99.90
31207;DHT22;17834;52.992;8.856;2023-12-28T05:14:15;7.70;99.90
31207;DHT22;17834;52.992;8.856;2023-12-28T05:16:40;7.70;99.90
31207;DHT22;17834;52.992;8.856;2023-12-28T05:19:06;7.70;99.90
31207;DHT22;17834;52.992;8.856;2023-12-28T05:21:31;7.80;99.90
31207;DHT22;17834;52.992;8.856;2023-12-28T05:23:57;7.90;99.90
31207;DHT22;17834;52.992;8.856;2023-12-28T05:26:22;7.90;99.90
31207;DHT22;17834;52.992;8.856;2023-12-28T05:28:49;7.90;99.90
31207;DHT22;17834;52.992;8.856;2023-12-28T05:31:14;7.90;99.90
31207;DHT22;17834;52.992;8.856;2023-12-28T05:33:40;7.90;99.90
31207;DHT22;17834;52.992;8.856;2023-12-28T05:36:06;8.00;99.90
31207;DHT22;17834;52.992;8.856;2023-12-28T05:38:32;8.00;99.90
31207;DHT22;17834;52.992;8.856;2023-12-28T05:40:57;8.10;99.90
31207;DHT22;17834;52.992;8.856;2023-12-28T05:43:23;8.10;99.90
31207;DHT22;17834;52.992;8.856;2023-12-28T05:45:48;8.10;99.90
31207;DHT22;17834;52.992;8.856;2023-12-28T05:48:14;8.10;99.90
31207;DHT22;17834;52.992;8.856;2023-12-28T05:50:39;8.20;99.90
31207;DHT22;17834;52.992;8.856;2023-12-28T05:53:05;8.20;99.90
31207;DHT22;17834;52.992;8.856;2023-12-28T05:55:31;8.20;99.90
31207;DHT22;17834;52.992;8.856;2023-12-28T05:57:56;8.20;99.90
31207;DHT22;17834;52.992;8.856;2023-12-28T06:00:22;8.20;99.90
31207;DHT22;17834;52.992;8.856;2023-12-28T06:02:48;8.10;99.90
31207;DHT22;17834;52.992;8.856;2023-12-28T06:05:17;8.10;99.90
31207;DHT22;17834;52.992;8.856;2023-12-28T06:07:43;8.10;99.90
31207;DHT22;17834;52.992;8.856;2023-12-28T06:10:09;8.10;99.90
31207;DHT22;17834;52.992;8.856;2023-12-28T06:12:34;8.20;99.90
31207;DHT22;17834;52.992;8.856;2023-12-28T06:15:00;8.30;99.90
31207;DHT22;17834;52.992;8.856;2023-12-28T06:17:26;8.30;99.90
31207;DHT22;17834;52.992;8.856;2023-12-28T06:19:52;8.40;99.90
31207;DHT22;17834;52.992;8.856;2023-12-28T06:22:17;8.40;99.90
31207;DHT22;17834;52.992;8.856;2023-12-28T06:24:43;8.40;99.90
31207;DHT22;17834;52.992;8.856;2023-12-28T06:27:08;8.50;99.90
31207;DHT22;17834;52.992;8.856;2023-12-28T06:29:34;8.40;99.90
31207;DHT22;17834;52.992;8.856;2023-12-28T06:31:59;8.40;99.90
31207;DHT22;17834;52.992;8.856;2023-12-28T06:34:25;8.50;99.90
31207;DHT22;17834;52.992;8.856;2023-12-28T06:36:51;8.60;99.90
31207;DHT22;17834;52.992;8.856;2023-12-28T06:39:17;8.70;99.90
31207;DHT22;17834;52.992;8.856;2023-12-28T06:41:46;8.70;99.90
31207;DHT22;17834;52.992;8.856;2023-12-28T06:44:11;8.80;99.90
31207;DHT22;17834;52.992;8.856;2023-12-28T06:46:39;8.90;99.90
31207;DHT22;17834;52.992;8.856;2023-12-28T06:49:04;8.90;99.90
31207;DHT22;17834;52.992;8.856;2023-12-28T06:51:31;9.00;99.90
31207;DHT22;17834;52.992;8.856;2023-12-28T06:53:57;9.00;99.90
31207;DHT22;17834;52.992;8.856;2023-12-28T06:56:22;9.10;99.90
31207;DHT22;17834;52.992;8.856;2023-12-28T06:58:48;9.20;99.90
31207;DHT22;17834;52.992;8.856;2023-12-28T07:01:13;9.20;99.90
31207;DHT22;17834;52.992;8.856;2023-12-28T07:03:39;9.40;99.90
31207;DHT22;17834;52.992;8.856;2023-12-28T07:06:04;9.40;99.90
31207;DHT22;17834;52.992;8.856;2023-12-28T07:08:30;9.50;99.90
31207;DHT22;17834;52.992;8.856;2023-12-28T07:10:56;9.50;99.90
31207;DHT22;17834;52.992;8.856;2023-12-28T07:13:22;9.50;99.90
31207;DHT22;17834;52.992;8.856;2023-12-28T07:15:48;9.50;99.90
31207;DHT22;17834;52.992;8.856;2023-12-28T07:18:13;9.60;99.90
31207;DHT22;17834;52.992;8.856;2023-12-28T07:20:39;9.50;99.90
31207;DHT22;17834;52.992;8.856;2023-12-28T07:23:04;9.60;99.90
31207;DHT22;17834;52.992;8.856;2023-12-28T07:25:30;9.60;99.90
31207;DHT22;17834;52.992;8.856;2023-12-28T07:27:55;9.70;99.90
31207;DHT22;17834;52.992;8.856;2023-12-28T07:30:21;9.70;99.90
31207;DHT22;17834;52.992;8.856;2023-12-28T07:32:46;9.70;99.90
31207;DHT22;17834;52.992;8.856;2023-12-28T07:35:12;9.70;99.90
31207;DHT22;17834;52.992;8.856;2023-12-28T07:37:37;9.80;99.90
31207;DHT22;17834;52.992;8.856;2023-12-28T07:40:03;9.80;99.90
31207;DHT22;17834;52.992;8.856;2023-12-28T07:42:29;9.80;99.90
31207;DHT22;17834;52.992;8.856;2023-12-28T07:44:55;9.90;99.90
31207;DHT22;17834;52.992;8.856;2023-12-28T07:47:21;9.90;99.90
31207;DHT22;17834;52.992;8.856;2023-12-28T07:49:46;10.00;99.90
31207;DHT22;17834;52.992;8.856;2023-12-28T07:52:12;10.00;99.90
31207;DHT22;17834;52.992;8.856;2023-12-28T07:54:37;10.10;99.90
31207;DHT22;17834;52.992;8.856;2023-12-28T07:57:03;10.10;99.90
31207;DHT22;17834;52.992;8.856;2023-12-28T07:59:29;10.20;99.90
31207;DHT22;17834;52.992;8.856;2023-12-28T08:01:55;10.30;99.90
31207;DHT22;17834;52.992;8.856;2023-12-28T08:04:21;10.30;99.90
31207;DHT22;17834;52.992;8.856;2023-12-28T08:06:46;10.40;99.90
31207;DHT22;17834;52.992;8.856;2023-12-28T08:09:12;10.40;99.90
31207;DHT22;17834;52.992;8.856;2023-12-28T08:11:37;10.50;99.90
31207;DHT22;17834;52.992;8.856;2023-12-28T08:14:03;10.50;99.90
31207;DHT22;17834;52.992;8.856;2023-12-28T08:16:29;10.50;99.90
31207;DHT22;17834;52.992;8.856;2023-12-28T08:18:54;10.50;99.90
31207;DHT22;17834;52.992;8.856;2023-12-28T08:21:20;10.60;99.90
31207;DHT22;17834;52.992;8.856;2023-12-28T08:23:45;10.60;99.90
31207;DHT22;17834;52.992;8.856;2023-12-28T08:26:11;10.60;99.90
31207;DHT22;17834;52.992;8.856;2023-12-28T08:28:37;10.70;99.90
31207;DHT22;17834;52.992;8.856;2023-12-28T08:31:02;10.70;99.90
31207;DHT22;17834;52.992;8.856;2023-12-28T08:33:28;10.70;99.90
31207;DHT22;17834;52.992;8.856;2023-12-28T08:35:53;10.80;99.90
31207;DHT22;17834;52.992;8.856;2023-12-28T08:38:19;10.80;99.90
31207;DHT22;17834;52.992;8.856;2023-12-28T08:40:45;10.80;99.90
31207;DHT22;17834;52.992;8.856;2023-12-28T08:43:10;10.90;99.90
31207;DHT22;17834;52.992;8.856;2023-12-28T08:45:36;11.00;99.90
31207;DHT22;17834;52.992;8.856;2023-12-28T08:48:02;11.00;99.90
31207;DHT22;17834;52.992;8.856;2023-12-28T08:50:28;11.00;99.90
31207;DHT22;17834;52.992;8.856;2023-12-28T08:52:53;11.00;99.90
31207;DHT22;17834;52.992;8.856;2023-12-28T08:55:19;11.00;99.90
31207;DHT22;17834;52.992;8.856;2023-12-28T08:57:44;11.00;99.90
31207;DHT22;17834;52.992;8.856;2023-12-28T09:00:10;11.10;99.90
31207;DHT22;17834;52.992;8.856;2023-12-28T09:02:36;11.10;99.90
31207;DHT22;17834;52.992;8.856;2023-12-28T09:05:02;11.10;99.90
31207;DHT22;17834;52.992;8.856;2023-12-28T09:07:28;11.20;99.90
31207;DHT22;17834;52.992;8.856;2023-12-28T09:09:53;11.30;99.90
31207;DHT22;17834;52.992;8.856;2023-12-28T09:12:19;11.30;99.90
31207;DHT22;17834;52.992;8.856;2023-12-28T09:14:44;11.40;99.90
31207;DHT22;17834;52.992;8.856;2023-12-28T09:17:11;11.40;99.90
31207;DHT22;17834;52.992;8.856;2023-12-28T09:19:36;11.40;99.90
31207;DHT22;17834;52.992;8.856;2023-12-28T09:22:03;11.40;99.90
31207;DHT22;17834;52.992;8.856;2023-12-28T09:24:28;11.40;99.90
31207;DHT22;17834;52.992;8.856;2023-12-28T09:26:54;11.50;99.90
31207;DHT22;17834;52.992;8.856;2023-12-28T09:29:19;11.50;99.90
31207;DHT22;17834;52.992;8.856;2023-12-28T09:31:46;11.50;99.90
31207;DHT22;17834;52.992;8.856;2023-12-28T09:34:11;11.60;99.90
31207;DHT22;17834;52.992;8.856;2023-12-28T09:36:37;11.60;99.90
31207;DHT22;17834;52.992;8.856;2023-12-28T09:39:02;11.70;99.90
31207;DHT22;17834;52.992;8.856;2023-12-28T09:41:30;11.70;99.90
31207;DHT22;17834;52.992;8.856;2023-12-28T09:44:09;11.70;99.90
31207;DHT22;17834;52.992;8.856;2023-12-28T09:46:35;11.70;99.90
31207;DHT22;17834;52.992;8.856;2023-12-28T09:49:02;11.70;99.90
31207;DHT22;17834;52.992;8.856;2023-12-28T09:51:29;11.60;99.90
31207;DHT22;17834;52.992;8.856;2023-12-28T09:53:55;11.60;99.90
31207;DHT22;17834;52.992;8.856;2023-12-28T09:56:22;11.60;99.90
31207;DHT22;17834;52.992;8.856;2023-12-28T09:58:48;11.60;99.90
31207;DHT22;17834;52.992;8.856;2023-12-28T10:01:17;11.60;99.90
31207;DHT22;17834;52.992;8.856;2023-12-28T10:03:43;11.60;99.90
31207;DHT22;17834;52.992;8.856;2023-12-28T10:06:08;11.70;99.90
31207;DHT22;17834;52.992;8.856;2023-12-28T10:08:34;11.70;99.90
31207;DHT22;17834;52.992;8.856;2023-12-28T10:11:02;11.70;99.90
31207;DHT22;17834;52.992;8.856;2023-12-28T10:13:27;11.70;99.90
31207;DHT22;17834;52.992;8.856;2023-12-28T10:15:57;11.70;99.90
31207;DHT22;17834;52.992;8.856;2023-12-28T10:18:23;11.70;99.90
31207;DHT22;17834;52.992;8.856;2023-12-28T10:20:52;11.60;99.90
31207;DHT22;17834;52.992;8.856;2023-12-28T10:23:18;11.60;99.90
31207;DHT22;17834;52.992;8.856;2023-12-28T10:25:46;11.60;99.90
31207;DHT22;17834;52.992;8.856;2023-12-28T10:28:11;11.60;99.90
31207;DHT22;17834;52.992;8.856;2023-12-28T10:30:38;11.60;99.90
31207;DHT22;17834;52.992;8.856;2023-12-28T10:33:05;11.60;99.90
31207;DHT22;17834;52.992;8.856;2023-12-28T10:35:31;11.60;99.90
31207;DHT22;17834;52.992;8.856;2023-12-28T10:38:00;11.50;99.90
31207;DHT22;17834;52.992;8.856;2023-12-28T10:40:26;11.60;99.90
31207;DHT22;17834;52.992;8.856;2023-12-28T10:42:54;11.60;99.90
31207;DHT22;17834;52.992;8.856;2023-12-28T10:45:25;11.60;99.90
31207;DHT22;17834;52.992;8.856;2023-12-28T10:48:14;11.60;99.90
31207;DHT22;17834;52.992;8.856;2023-12-28T10:50:51;11.60;99.90
31207;DHT22;17834;52.992;8.856;2023-12-28T10:53:36;11.70;99.90
31207;DHT22;17834;52.992;8.856;2023-12-28T10:56:32;11.70;99.90
31207;DHT22;17834;52.992;8.856;2023-12-28T10:59:40;11.80;99.90
31207;DHT22;17834;52.992;8.856;2023-12-28T11:02:11;11.80;99.90
31207;DHT22;17834;52.992;8.856;2023-12-28T11:04:49;11.80;99.90
31207;DHT22;17834;52.992;8.856;2023-12-28T11:07:17;11.90;99.90
31207;DHT22;17834;52.992;8.856;2023-12-28T11:09:44;12.00;99.90
31207;DHT22;17834;52.992;8.856;2023-12-28T11:12:10;12.00;99.90
31207;DHT22;17834;52.992;8.856;2023-12-28T11:14:37;12.10;99.90
31207;DHT22;17834;52.992;8.856;2023-12-28T11:17:04;12.20;99.90
31207;DHT22;17834;52.992;8.856;2023-12-28T11:19:31;12.20;99.90
31207;DHT22;17834;52.992;8.856;2023-12-28T11:21:57;12.20;99.90
31207;DHT22;17834;52.992;8.856;2023-12-28T11:24:26;12.20;99.90
31207;DHT22;17834;52.992;8.856;2023-12-28T11:26:54;12.20;99.90
31207;DHT22;17834;52.992;8.856;2023-12-28T11:29:23;12.10;99.90
31207;DHT22;17834;52.992;8.856;2023-12-28T11:31:58;12.10;99.90
31207;DHT22;17834;52.992;8.856;2023-12-28T11:34:33;12.10;99.90
31207;DHT22;17834;52.992;8.856;2023-12-28T11:37:02;12.10;99.90
31207;DHT22;17834;52.992;8.856;2023-12-28T11:39:31;12.10;99.90
31207;DHT22;17834;52.992;8.856;2023-12-28T11:42:06;12.20;99.90
31207;DHT22;17834;52.992;8.856;2023-12-28T11:44:37;12.20;99.90
31207;DHT22;17834;52.992;8.856;2023-12-28T11:47:30;12.10;99.90
31207;DHT22;17834;52.992;8.856;2023-12-28T11:50:06;12.00;99.90
31207;DHT22;17834;52.992;8.856;2023-12-28T11:52:32;12.00;99.90
31207;DHT22;17834;52.992;8.856;2023-12-28T11:54:58;11.90;99.90
31207;DHT22;17834;52.992;8.856;2023-12-28T11:57:25;11.80;99.90
31207;DHT22;17834;52.992;8.856;2023-12-28T12:00:00;11.80;99.90
31207;DHT22;17834;52.992;8.856;2023-12-28T12:02:26;11.70;99.90
31207;DHT22;17834;52.992;8.856;2023-12-28T12:04:53;11.70;99.90
31207;DHT22;17834;52.992;8.856;2023-12-28T12:07:19;11.70;99.90
31207;DHT22;17834;52.992;8.856;2023-12-28T12:09:44;11.70;99.90
31207;DHT22;17834;52.992;8.856;2023-12-28T12:12:10;11.70;99.90
31207;DHT22;17834;52.992;8.856;2023-12-28T12:14:36;11.70;99.90
31207;DHT22;17834;52.992;8.856;2023-12-28T12:17:02;11.70;99.90
31207;DHT22;17834;52.992;8.856;2023-12-28T12:19:28;11.80;99.90
31207;DHT22;17834;52.992;8.856;2023-12-28T12:21:55;11.80;99.90
31207;DHT22;17834;52.992;8.856;2023-12-28T12:24:21;11.90;99.90
31207;DHT22;17834;52.992;8.856;2023-12-28T12:26:47;11.90;99.90
31207;DHT22;17834;52.992;8.856;2023-12-28T12:29:13;11.90;99.90
31207;DHT22;17834;52.992;8.856;2023-12-28T12:31:42;12.00;99.90
31207;DHT22;17834;52.992;8.856;2023-12-28T12:34:10;12.00;99.90
31207;DHT22;17834;52.992;8.856;2023-12-28T12:36:35;12.00;99.90
31207;DHT22;17834;52.992;8.856;2023-12-28T12:39:01;12.00;99.90
31207;DHT22;17834;52.992;8.856;2023-12-28T12:41:27;11.90;99.90
31207;DHT22;17834;52.992;8.856;2023-12-28T12:43:53;11.90;99.90
31207;DHT22;17834;52.992;8.856;2023-12-28T12:46:22;11.90;99.90
31207;DHT22;17834;52.992;8.856;2023-12-28T12:48:55;11.90;99.90
31207;DHT22;17834;52.992;8.856;2023-12-28T12:51:21;11.90;99.90
31207;DHT22;17834;52.992;8.856;2023-12-28T12:53:47;11.80;99.90
31207;DHT22;17834;52.992;8.856;2023-12-28T12:56:12;11.80;99.90
31207;DHT22;17834;52.992;8.856;2023-12-28T12:58:39;11.80;99.90
31207;DHT22;17834;52.992;8.856;2023-12-28T13:01:04;11.80;99.90
31207;DHT22;17834;52.992;8.856;2023-12-28T13:03:30;11.80;99.90
31207;DHT22;17834;52.992;8.856;2023-12-28T13:05:55;11.80;99.90
31207;DHT22;17834;52.992;8.856;2023-12-28T13:08:22;11.80;99.90
31207;DHT22;17834;52.992;8.856;2023-12-28T13:10:47;11.80;99.90
31207;DHT22;17834;52.992;8.856;2023-12-28T13:13:15;11.80;99.90
31207;DHT22;17834;52.992;8.856;2023-12-28T13:15:40;11.80;99.90
31207;DHT22;17834;52.992;8.856;2023-12-28T13:18:06;11.80;99.90
31207;DHT22;17834;52.992;8.856;2023-12-28T13:20:31;11.80;99.90
31207;DHT22;17834;52.992;8.856;2023-12-28T13:22:57;11.70;99.90
31207;DHT22;17834;52.992;8.856;2023-12-28T13:25:22;11.70;99.90
31207;DHT22;17834;52.992;8.856;2023-12-28T13:27:48;11.70;99.90
31207;DHT22;17834;52.992;8.856;2023-12-28T13:30:14;11.80;99.90
31207;DHT22;17834;52.992;8.856;2023-12-28T13:32:39;12.00;99.90
31207;DHT22;17834;52.992;8.856;2023-12-28T13:35:05;12.00;99.90
31207;DHT22;17834;52.992;8.856;2023-12-28T13:37:32;12.00;99.90
31207;DHT22;17834;52.992;8.856;2023-12-28T13:39:57;12.10;99.90
31207;DHT22;17834;52.992;8.856;2023-12-28T13:42:22;12.10;99.90
31207;DHT22;17834;52.992;8.856;2023-12-28T13:44:48;12.10;99.90
31207;DHT22;17834;52.992;8.856;2023-12-28T13:47:14;12.10;99.90
31207;DHT22;17834;52.992;8.856;2023-12-28T13:49:39;12.10;99.90
31207;DHT22;17834;52.992;8.856;2023-12-28T13:52:05;12.10;99.90
31207;DHT22;17834;52.992;8.856;2023-12-28T13:54:30;12.10;99.90
31207;DHT22;17834;52.992;8.856;2023-12-28T13:56:56;12.10;99.90
31207;DHT22;17834;52.992;8.856;2023-12-28T13:59:24;12.00;99.90
31207;DHT22;17834;52.992;8.856;2023-12-28T14:01:50;12.00;99.90
31207;DHT22;17834;52.992;8.856;2023-12-28T14:04:15;11.80;99.90
31207;DHT22;17834;52.992;8.856;2023-12-28T14:06:41;11.80;99.90
31207;DHT22;17834;52.992;8.856;2023-12-28T14:09:06;11.70;99.90
31207;DHT22;17834;52.992;8.856;2023-12-28T14:11:31;11.60;99.90
31207;DHT22;17834;52.992;8.856;2023-12-28T14:13:57;11.50;99.90
31207;DHT22;17834;52.992;8.856;2023-12-28T14:16:22;11.50;99.90
31207;DHT22;17834;52.992;8.856;2023-12-28T14:18:48;11.50;99.90
31207;DHT22;17834;52.992;8.856;2023-12-28T14:21:14;11.40;99.90
31207;DHT22;17834;52.992;8.856;2023-12-28T14:23:40;11.30;99.90
31207;DHT22;17834;52.992;8.856;2023-12-28T14:26:14;11.30;99.90
31207;DHT22;17834;52.992;8.856;2023-12-28T14:28:41;11.30;99.90
31207;DHT22;17834;52.992;8.856;2023-12-28T14:31:09;11.20;99.90
31207;DHT22;17834;52.992;8.856;2023-12-28T14:33:34;11.20;99.90
31207;DHT22;17834;52.992;8.856;2023-12-28T14:36:01;11.10;99.90
31207;DHT22;17834;52.992;8.856;2023-12-28T14:38:28;11.10;99.90
31207;DHT22;17834;52.992;8.856;2023-12-28T14:40:53;11.00;99.90
31207;DHT22;17834;52.992;8.856;2023-12-28T14:43:19;10.90;99.90
31207;DHT22;17834;52.992;8.856;2023-12-28T14:45:45;10.80;99.90
31207;DHT22;17834;52.992;8.856;2023-12-28T14:48:12;10.70;99.90
31207;DHT22;17834;52.992;8.856;2023-12-28T14:50:37;10.70;99.90
31207;DHT22;17834;52.992;8.856;2023-12-28T14:53:03;10.70;99.90
31207;DHT22;17834;52.992;8.856;2023-12-28T14:55:28;10.70;99.90
31207;DHT22;17834;52.992;8.856;2023-12-28T14:57:54;10.70;99.90
31207;DHT22;17834;52.992;8.856;2023-12-28T15:00:20;10.70;99.90
31207;DHT22;17834;52.992;8.856;2023-12-28T15:02:45;10.70;99.90
31207;DHT22;17834;52.992;8.856;2023-12-28T15:05:11;10.70;99.90
31207;DHT22;17834;52.992;8.856;2023-12-28T15:07:38;10.80;99.90
31207;DHT22;17834;52.992;8.856;2023-12-28T15:10:04;10.80;99.90
31207;DHT22;17834;52.992;8.856;2023-12-28T15:12:30;10.80;99.90
31207;DHT22;17834;52.992;8.856;2023-12-28T15:14:56;10.80;99.90
31207;DHT22;17834;52.992;8.856;2023-12-28T15:17:21;10.80;99.90
31207;DHT22;17834;52.992;8.856;2023-12-28T15:19:48;10.80;99.90
31207;DHT22;17834;52.992;8.856;2023-12-28T15:22:14;10.80;99.90
31207;DHT22;17834;52.992;8.856;2023-12-28T15:24:40;10.80;99.90
31207;DHT22;17834;52.992;8.856;2023-12-28T15:27:05;10.80;99.90
31207;DHT22;17834;52.992;8.856;2023-12-28T15:29:32;10.70;99.90
31207;DHT22;17834;52.992;8.856;2023-12-28T15:31:58;10.70;99.90
31207;DHT22;17834;52.992;8.856;2023-12-28T15:34:23;10.60;99.90
31207;DHT22;17834;52.992;8.856;2023-12-28T15:36:49;10.50;99.90